Miami, Indiana
Current Conditions -  °F | °C
As of 7:58 AM on Wednesday 26 Nov 2014 (Local Time) from KGUS Reporting Station
Overcast Overcast  
Wind Chill: 16°   Ceiling: 1200
Heat Index: 24°   Visibility: 10mi
Dew Point: 23°   Wind: 8mph
Humidity: 94%   Direction: 60°ENE
Pressure: 30.15"   Gusts: NA
Location:  40.61°N, 86.11°W
Report Text: KGUS 261258Z AUTO 06007KT 10SM OVC012 M04/M05 A3015 RMK AO2 SLP225 T10421051
Loading
Personal Weather Stations






























Interactive Weather Map New forecast layout! Learn more

10-Day Weather Forecast

Advertisements
Track Severe Weather on mobile